sensor_id;sensor_type;location;lat;lon;timestamp;temperature;humidity
5136;DHT22;2586;48.710;9.202;2023-04-16T00:00:41;6.90;99.90
5136;DHT22;2586;48.710;9.202;2023-04-16T00:03:06;6.90;99.90
5136;DHT22;2586;48.710;9.202;2023-04-16T00:05:32;7.00;99.90
5136;DHT22;2586;48.710;9.202;2023-04-16T00:07:58;7.00;99.90
5136;DHT22;2586;48.710;9.202;2023-04-16T00:10:23;7.00;99.90
5136;DHT22;2586;48.710;9.202;2023-04-16T00:12:49;6.90;99.90
5136;DHT22;2586;48.710;9.202;2023-04-16T00:15:15;6.90;99.90
5136;DHT22;2586;48.710;9.202;2023-04-16T00:17:40;6.90;99.90
5136;DHT22;2586;48.710;9.202;2023-04-16T00:20:06;6.90;99.90
5136;DHT22;2586;48.710;9.202;2023-04-16T00:22:33;7.00;99.90
5136;DHT22;2586;48.710;9.202;2023-04-16T00:24:59;6.90;99.90
5136;DHT22;2586;48.710;9.202;2023-04-16T00:27:24;6.90;99.90
5136;DHT22;2586;48.710;9.202;2023-04-16T00:29:50;6.90;99.90
5136;DHT22;2586;48.710;9.202;2023-04-16T00:32:15;6.90;99.90
5136;DHT22;2586;48.710;9.202;2023-04-16T00:34:41;6.90;99.90
5136;DHT22;2586;48.710;9.202;2023-04-16T00:37:06;6.90;99.90
5136;DHT22;2586;48.710;9.202;2023-04-16T00:39:32;6.90;99.90
5136;DHT22;2586;48.710;9.202;2023-04-16T00:41:58;6.90;99.90
5136;DHT22;2586;48.710;9.202;2023-04-16T00:44:23;7.00;99.90
5136;DHT22;2586;48.710;9.202;2023-04-16T00:46:49;6.90;99.90
5136;DHT22;2586;48.710;9.202;2023-04-16T00:49:15;6.90;99.90
5136;DHT22;2586;48.710;9.202;2023-04-16T00:51:41;6.90;99.90
5136;DHT22;2586;48.710;9.202;2023-04-16T00:54:06;6.90;99.90
5136;DHT22;2586;48.710;9.202;2023-04-16T00:56:33;6.90;99.90
5136;DHT22;2586;48.710;9.202;2023-04-16T00:59:00;6.90;99.90
5136;DHT22;2586;48.710;9.202;2023-04-16T01:01:25;6.90;99.90
5136;DHT22;2586;48.710;9.202;2023-04-16T01:03:51;6.90;99.90
5136;DHT22;2586;48.710;9.202;2023-04-16T01:06:18;6.90;99.90
5136;DHT22;2586;48.710;9.202;2023-04-16T01:08:46;6.90;99.90
5136;DHT22;2586;48.710;9.202;2023-04-16T01:11:14;6.90;99.90
5136;DHT22;2586;48.710;9.202;2023-04-16T01:13:40;6.90;99.90
5136;DHT22;2586;48.710;9.202;2023-04-16T01:16:07;6.90;99.90
5136;DHT22;2586;48.710;9.202;2023-04-16T01:18:33;6.80;99.90
5136;DHT22;2586;48.710;9.202;2023-04-16T01:21:00;6.90;99.90
5136;DHT22;2586;48.710;9.202;2023-04-16T01:23:25;6.80;99.90
5136;DHT22;2586;48.710;9.202;2023-04-16T01:25:51;6.80;99.90
5136;DHT22;2586;48.710;9.202;2023-04-16T01:28:16;6.90;99.90
5136;DHT22;2586;48.710;9.202;2023-04-16T01:30:42;6.90;99.90
5136;DHT22;2586;48.710;9.202;2023-04-16T01:33:10;6.90;99.90
5136;DHT22;2586;48.710;9.202;2023-04-16T01:35:36;7.00;99.90
5136;DHT22;2586;48.710;9.202;2023-04-16T01:38:02;6.90;99.90
5136;DHT22;2586;48.710;9.202;2023-04-16T01:40:28;6.90;99.90
5136;DHT22;2586;48.710;9.202;2023-04-16T01:42:53;6.90;99.90
5136;DHT22;2586;48.710;9.202;2023-04-16T01:45:19;6.80;99.90
5136;DHT22;2586;48.710;9.202;2023-04-16T01:47:45;6.90;99.90
5136;DHT22;2586;48.710;9.202;2023-04-16T01:50:11;6.90;99.90
5136;DHT22;2586;48.710;9.202;2023-04-16T01:52:37;6.80;99.90
5136;DHT22;2586;48.710;9.202;2023-04-16T01:55:02;6.90;99.90
5136;DHT22;2586;48.710;9.202;2023-04-16T01:57:28;6.90;99.90
5136;DHT22;2586;48.710;9.202;2023-04-16T01:59:54;6.90;99.90
5136;DHT22;2586;48.710;9.202;2023-04-16T02:02:19;6.90;99.90
5136;DHT22;2586;48.710;9.202;2023-04-16T02:04:45;6.80;99.90
5136;DHT22;2586;48.710;9.202;2023-04-16T02:07:11;6.90;99.90
5136;DHT22;2586;48.710;9.202;2023-04-16T02:09:37;6.80;99.90
5136;DHT22;2586;48.710;9.202;2023-04-16T02:12:03;6.80;99.90
5136;DHT22;2586;48.710;9.202;2023-04-16T02:14:32;6.80;99.90
5136;DHT22;2586;48.710;9.202;2023-04-16T02:17:01;6.80;99.90
5136;DHT22;2586;48.710;9.202;2023-04-16T02:19:26;6.80;99.90
5136;DHT22;2586;48.710;9.202;2023-04-16T02:21:52;6.80;99.90
5136;DHT22;2586;48.710;9.202;2023-04-16T02:24:18;6.80;99.90
5136;DHT22;2586;48.710;9.202;2023-04-16T02:26:44;6.90;99.90
5136;DHT22;2586;48.710;9.202;2023-04-16T02:29:10;6.80;99.90
5136;DHT22;2586;48.710;9.202;2023-04-16T02:31:36;6.80;99.90
5136;DHT22;2586;48.710;9.202;2023-04-16T02:34:02;6.80;99.90
5136;DHT22;2586;48.710;9.202;2023-04-16T02:36:27;6.80;99.90
5136;DHT22;2586;48.710;9.202;2023-04-16T02:38:53;6.90;99.90
5136;DHT22;2586;48.710;9.202;2023-04-16T02:41:18;6.90;99.90
5136;DHT22;2586;48.710;9.202;2023-04-16T02:43:44;6.80;99.90
5136;DHT22;2586;48.710;9.202;2023-04-16T02:46:10;6.80;99.90
5136;DHT22;2586;48.710;9.202;2023-04-16T02:48:35;6.80;99.90
5136;DHT22;2586;48.710;9.202;2023-04-16T02:51:01;6.80;99.90
5136;DHT22;2586;48.710;9.202;2023-04-16T02:53:27;6.80;99.90
5136;DHT22;2586;48.710;9.202;2023-04-16T02:55:53;6.80;99.90
5136;DHT22;2586;48.710;9.202;2023-04-16T02:58:23;6.80;99.90
5136;DHT22;2586;48.710;9.202;2023-04-16T03:00:51;6.80;99.90
5136;DHT22;2586;48.710;9.202;2023-04-16T03:03:16;6.80;99.90
5136;DHT22;2586;48.710;9.202;2023-04-16T03:05:42;6.80;99.90
5136;DHT22;2586;48.710;9.202;2023-04-16T03:08:08;6.80;99.90
5136;DHT22;2586;48.710;9.202;2023-04-16T03:10:34;6.90;99.90
5136;DHT22;2586;48.710;9.202;2023-04-16T03:13:00;6.80;99.90
5136;DHT22;2586;48.710;9.202;2023-04-16T03:15:26;6.80;99.90
5136;DHT22;2586;48.710;9.202;2023-04-16T03:17:52;6.80;99.90
5136;DHT22;2586;48.710;9.202;2023-04-16T03:20:18;6.80;99.90
5136;DHT22;2586;48.710;9.202;2023-04-16T03:22:48;6.80;99.90
5136;DHT22;2586;48.710;9.202;2023-04-16T03:25:13;6.80;99.90
5136;DHT22;2586;48.710;9.202;2023-04-16T03:27:39;6.80;99.90
5136;DHT22;2586;48.710;9.202;2023-04-16T03:30:10;6.80;99.90
5136;DHT22;2586;48.710;9.202;2023-04-16T03:32:36;6.80;99.90
5136;DHT22;2586;48.710;9.202;2023-04-16T03:35:03;6.80;99.90
5136;DHT22;2586;48.710;9.202;2023-04-16T03:37:29;6.70;99.90
5136;DHT22;2586;48.710;9.202;2023-04-16T03:39:55;6.80;99.90
5136;DHT22;2586;48.710;9.202;2023-04-16T03:42:20;6.80;99.90
5136;DHT22;2586;48.710;9.202;2023-04-16T03:44:46;6.70;99.90
5136;DHT22;2586;48.710;9.202;2023-04-16T03:47:11;6.80;99.90
5136;DHT22;2586;48.710;9.202;2023-04-16T03:49:37;6.70;99.90
5136;DHT22;2586;48.710;9.202;2023-04-16T03:52:02;6.70;99.90
5136;DHT22;2586;48.710;9.202;2023-04-16T03:54:28;6.80;99.90
5136;DHT22;2586;48.710;9.202;2023-04-16T03:56:53;6.70;99.90
5136;DHT22;2586;48.710;9.202;2023-04-16T03:59:19;6.70;99.90
5136;DHT22;2586;48.710;9.202;2023-04-16T04:01:45;6.80;99.90
5136;DHT22;2586;48.710;9.202;2023-04-16T04:04:10;6.70;99.90
5136;DHT22;2586;48.710;9.202;2023-04-16T04:06:36;6.70;99.90
5136;DHT22;2586;48.710;9.202;2023-04-16T04:09:02;6.80;99.90
5136;DHT22;2586;48.710;9.202;2023-04-16T04:11:27;6.70;99.90
5136;DHT22;2586;48.710;9.202;2023-04-16T04:13:53;6.70;99.90
5136;DHT22;2586;48.710;9.202;2023-04-16T04:16:18;6.70;99.90
5136;DHT22;2586;48.710;9.202;2023-04-16T04:18:44;6.70;99.90
5136;DHT22;2586;48.710;9.202;2023-04-16T04:21:09;6.70;99.90
5136;DHT22;2586;48.710;9.202;2023-04-16T04:23:35;6.70;99.90
5136;DHT22;2586;48.710;9.202;2023-04-16T04:26:01;6.70;99.90
5136;DHT22;2586;48.710;9.202;2023-04-16T04:28:30;6.70;99.90
5136;DHT22;2586;48.710;9.202;2023-04-16T04:31:00;6.70;99.90
5136;DHT22;2586;48.710;9.202;2023-04-16T04:33:27;6.70;99.90
5136;DHT22;2586;48.710;9.202;2023-04-16T04:35:53;6.70;99.90
5136;DHT22;2586;48.710;9.202;2023-04-16T04:38:19;6.70;99.90
5136;DHT22;2586;48.710;9.202;2023-04-16T04:40:47;6.70;99.90
5136;DHT22;2586;48.710;9.202;2023-04-16T04:43:12;6.70;99.90
5136;DHT22;2586;48.710;9.202;2023-04-16T04:45:38;6.70;99.90
5136;DHT22;2586;48.710;9.202;2023-04-16T04:48:04;6.60;99.90
5136;DHT22;2586;48.710;9.202;2023-04-16T04:50:30;6.70;99.90
5136;DHT22;2586;48.710;9.202;2023-04-16T04:52:56;6.70;99.90
5136;DHT22;2586;48.710;9.202;2023-04-16T04:55:21;6.70;99.90
5136;DHT22;2586;48.710;9.202;2023-04-16T04:57:48;6.70;99.90
5136;DHT22;2586;48.710;9.202;2023-04-16T05:00:13;6.70;99.90
5136;DHT22;2586;48.710;9.202;2023-04-16T05:02:39;6.70;99.90
5136;DHT22;2586;48.710;9.202;2023-04-16T05:05:05;6.70;99.90
5136;DHT22;2586;48.710;9.202;2023-04-16T05:07:31;6.70;99.90
5136;DHT22;2586;48.710;9.202;2023-04-16T05:09:56;6.70;99.90
5136;DHT22;2586;48.710;9.202;2023-04-16T05:12:24;6.70;99.90
5136;DHT22;2586;48.710;9.202;2023-04-16T05:14:50;6.70;99.90
5136;DHT22;2586;48.710;9.202;2023-04-16T05:17:15;6.70;99.90
5136;DHT22;2586;48.710;9.202;2023-04-16T05:19:41;6.70;99.90
5136;DHT22;2586;48.710;9.202;2023-04-16T05:22:06;6.70;99.90
5136;DHT22;2586;48.710;9.202;2023-04-16T05:24:32;6.70;99.90
5136;DHT22;2586;48.710;9.202;2023-04-16T05:26:57;6.70;99.90
5136;DHT22;2586;48.710;9.202;2023-04-16T05:29:23;6.70;99.90
5136;DHT22;2586;48.710;9.202;2023-04-16T05:31:49;6.70;99.90
5136;DHT22;2586;48.710;9.202;2023-04-16T05:34:14;6.70;99.90
5136;DHT22;2586;48.710;9.202;2023-04-16T05:36:40;6.70;99.90
5136;DHT22;2586;48.710;9.202;2023-04-16T05:39:05;6.70;99.90
5136;DHT22;2586;48.710;9.202;2023-04-16T05:41:32;6.70;99.90
5136;DHT22;2586;48.710;9.202;2023-04-16T05:43:58;6.70;99.90
5136;DHT22;2586;48.710;9.202;2023-04-16T05:46:23;6.70;99.90
5136;DHT22;2586;48.710;9.202;2023-04-16T05:48:49;6.70;99.90
5136;DHT22;2586;48.710;9.202;2023-04-16T05:51:14;6.70;99.90
5136;DHT22;2586;48.710;9.202;2023-04-16T05:53:40;6.70;99.90
5136;DHT22;2586;48.710;9.202;2023-04-16T05:56:06;6.70;99.90
5136;DHT22;2586;48.710;9.202;2023-04-16T05:58:32;6.70;99.90
5136;DHT22;2586;48.710;9.202;2023-04-16T06:00:58;6.60;99.90
5136;DHT22;2586;48.710;9.202;2023-04-16T06:03:24;6.70;99.90
5136;DHT22;2586;48.710;9.202;2023-04-16T06:05:49;6.70;99.90
5136;DHT22;2586;48.710;9.202;2023-04-16T06:08:15;6.70;99.90
5136;DHT22;2586;48.710;9.202;2023-04-16T06:10:40;6.60;99.90
5136;DHT22;2586;48.710;9.202;2023-04-16T06:13:06;6.70;99.90
5136;DHT22;2586;48.710;9.202;2023-04-16T06:15:31;6.70;99.90
5136;DHT22;2586;48.710;9.202;2023-04-16T06:17:57;6.70;99.90
5136;DHT22;2586;48.710;9.202;2023-04-16T06:20:23;6.70;99.90
5136;DHT22;2586;48.710;9.202;2023-04-16T06:22:48;6.70;99.90
5136;DHT22;2586;48.710;9.202;2023-04-16T06:25:14;6.70;99.90
5136;DHT22;2586;48.710;9.202;2023-04-16T06:27:40;6.70;99.90
5136;DHT22;2586;48.710;9.202;2023-04-16T06:30:11;6.70;99.90
5136;DHT22;2586;48.710;9.202;2023-04-16T06:32:37;6.70;99.90
5136;DHT22;2586;48.710;9.202;2023-04-16T06:35:03;6.70;99.90
5136;DHT22;2586;48.710;9.202;2023-04-16T06:37:29;6.70;99.90
5136;DHT22;2586;48.710;9.202;2023-04-16T06:39:54;6.70;99.90
5136;DHT22;2586;48.710;9.202;2023-04-16T06:42:20;6.70;99.90
5136;DHT22;2586;48.710;9.202;2023-04-16T06:44:45;6.70;99.90
5136;DHT22;2586;48.710;9.202;2023-04-16T06:47:12;6.70;99.90
5136;DHT22;2586;48.710;9.202;2023-04-16T06:49:37;6.70;99.90
5136;DHT22;2586;48.710;9.202;2023-04-16T06:52:04;6.80;99.90
5136;DHT22;2586;48.710;9.202;2023-04-16T06:54:30;6.80;99.90
5136;DHT22;2586;48.710;9.202;2023-04-16T06:56:56;6.80;99.90
5136;DHT22;2586;48.710;9.202;2023-04-16T06:59:21;6.80;99.90
5136;DHT22;2586;48.710;9.202;2023-04-16T07:01:47;6.80;99.90
5136;DHT22;2586;48.710;9.202;2023-04-16T07:04:12;6.80;99.90
5136;DHT22;2586;48.710;9.202;2023-04-16T07:06:38;6.80;99.90
5136;DHT22;2586;48.710;9.202;2023-04-16T07:09:04;6.80;99.90
5136;DHT22;2586;48.710;9.202;2023-04-16T07:11:29;6.90;99.90
5136;DHT22;2586;48.710;9.202;2023-04-16T07:13:55;6.90;99.90
5136;DHT22;2586;48.710;9.202;2023-04-16T07:16:22;6.90;99.90
5136;DHT22;2586;48.710;9.202;2023-04-16T07:18:47;6.90;99.90
5136;DHT22;2586;48.710;9.202;2023-04-16T07:21:13;6.90;99.90
5136;DHT22;2586;48.710;9.202;2023-04-16T07:23:39;6.90;99.90
5136;DHT22;2586;48.710;9.202;2023-04-16T07:26:04;7.00;99.90
5136;DHT22;2586;48.710;9.202;2023-04-16T07:28:30;6.90;99.90
5136;DHT22;2586;48.710;9.202;2023-04-16T07:30:56;7.00;99.90
5136;DHT22;2586;48.710;9.202;2023-04-16T07:33:21;7.00;99.90
5136;DHT22;2586;48.710;9.202;2023-04-16T07:35:47;7.10;99.90
5136;DHT22;2586;48.710;9.202;2023-04-16T07:38:12;7.00;99.90
5136;DHT22;2586;48.710;9.202;2023-04-16T07:40:39;7.10;99.90
5136;DHT22;2586;48.710;9.202;2023-04-16T07:43:04;7.10;99.90
5136;DHT22;2586;48.710;9.202;2023-04-16T07:45:30;7.20;99.90
5136;DHT22;2586;48.710;9.202;2023-04-16T07:47:55;7.30;99.90
5136;DHT22;2586;48.710;9.202;2023-04-16T07:50:21;7.30;99.90
5136;DHT22;2586;48.710;9.202;2023-04-16T07:52:46;7.30;99.90
5136;DHT22;2586;48.710;9.202;2023-04-16T07:55:12;7.30;99.90
5136;DHT22;2586;48.710;9.202;2023-04-16T07:57:38;7.30;99.90
5136;DHT22;2586;48.710;9.202;2023-04-16T08:00:05;7.20;99.90
5136;DHT22;2586;48.710;9.202;2023-04-16T08:02:30;7.30;99.90
5136;DHT22;2586;48.710;9.202;2023-04-16T08:04:56;7.30;99.90
5136;DHT22;2586;48.710;9.202;2023-04-16T08:07:22;7.30;99.90
5136;DHT22;2586;48.710;9.202;2023-04-16T08:09:48;7.20;99.90
5136;DHT22;2586;48.710;9.202;2023-04-16T08:12:14;7.30;99.90
5136;DHT22;2586;48.710;9.202;2023-04-16T08:14:41;7.20;99.90
5136;DHT22;2586;48.710;9.202;2023-04-16T08:17:07;7.20;99.90
5136;DHT22;2586;48.710;9.202;2023-04-16T08:19:32;7.20;99.90
5136;DHT22;2586;48.710;9.202;2023-04-16T08:21:58;7.30;99.90
5136;DHT22;2586;48.710;9.202;2023-04-16T08:24:24;7.30;99.90
5136;DHT22;2586;48.710;9.202;2023-04-16T08:26:49;7.30;99.90
5136;DHT22;2586;48.710;9.202;2023-04-16T08:29:15;7.30;99.90
5136;DHT22;2586;48.710;9.202;2023-04-16T08:31:41;7.30;99.90
5136;DHT22;2586;48.710;9.202;2023-04-16T08:34:06;7.30;99.90
5136;DHT22;2586;48.710;9.202;2023-04-16T08:36:32;7.20;99.90
5136;DHT22;2586;48.710;9.202;2023-04-16T08:38:57;7.30;99.90
5136;DHT22;2586;48.710;9.202;2023-04-16T08:41:24;7.30;99.90
5136;DHT22;2586;48.710;9.202;2023-04-16T08:43:52;7.30;99.90
5136;DHT22;2586;48.710;9.202;2023-04-16T08:46:21;7.30;99.90
5136;DHT22;2586;48.710;9.202;2023-04-16T08:48:53;7.40;99.90
5136;DHT22;2586;48.710;9.202;2023-04-16T08:51:21;7.30;99.90
5136;DHT22;2586;48.710;9.202;2023-04-16T08:53:51;7.40;99.90
5136;DHT22;2586;48.710;9.202;2023-04-16T08:56:24;7.40;99.90
5136;DHT22;2586;48.710;9.202;2023-04-16T08:58:50;7.40;99.90
5136;DHT22;2586;48.710;9.202;2023-04-16T09:01:19;7.40;99.90
5136;DHT22;2586;48.710;9.202;2023-04-16T09:03:48;7.50;99.90
5136;DHT22;2586;48.710;9.202;2023-04-16T09:06:15;7.50;99.90
5136;DHT22;2586;48.710;9.202;2023-04-16T09:08:43;7.50;99.90
5136;DHT22;2586;48.710;9.202;2023-04-16T09:11:08;7.60;99.90
5136;DHT22;2586;48.710;9.202;2023-04-16T09:13:36;7.70;99.90
5136;DHT22;2586;48.710;9.202;2023-04-16T09:16:02;7.60;99.90
5136;DHT22;2586;48.710;9.202;2023-04-16T09:18:29;7.60;99.90
5136;DHT22;2586;48.710;9.202;2023-04-16T09:20:55;7.70;99.90
5136;DHT22;2586;48.710;9.202;2023-04-16T09:23:21;7.80;99.90
5136;DHT22;2586;48.710;9.202;2023-04-16T09:25:47;7.90;99.90
5136;DHT22;2586;48.710;9.202;2023-04-16T09:28:39;7.90;99.90
5136;DHT22;2586;48.710;9.202;2023-04-16T09:31:18;8.00;99.90
5136;DHT22;2586;48.710;9.202;2023-04-16T09:34:05;8.10;99.90
5136;DHT22;2586;48.710;9.202;2023-04-16T09:36:31;8.00;99.90
5136;DHT22;2586;48.710;9.202;2023-04-16T09:38:57;8.00;99.90
5136;DHT22;2586;48.710;9.202;2023-04-16T09:41:27;8.10;99.90
5136;DHT22;2586;48.710;9.202;2023-04-16T09:43:58;8.30;99.90
5136;DHT22;2586;48.710;9.202;2023-04-16T09:46:34;8.30;99.90
5136;DHT22;2586;48.710;9.202;2023-04-16T09:49:14;8.20;99.90
5136;DHT22;2586;48.710;9.202;2023-04-16T09:51:41;8.10;99.90
5136;DHT22;2586;48.710;9.202;2023-04-16T09:54:07;8.10;99.90
5136;DHT22;2586;48.710;9.202;2023-04-16T09:56:42;8.10;99.90
5136;DHT22;2586;48.710;9.202;2023-04-16T09:59:15;8.10;99.90
5136;DHT22;2586;48.710;9.202;2023-04-16T10:01:41;8.10;99.90
5136;DHT22;2586;48.710;9.202;2023-04-16T10:04:07;8.20;99.90
5136;DHT22;2586;48.710;9.202;2023-04-16T10:06:33;8.20;99.90
5136;DHT22;2586;48.710;9.202;2023-04-16T10:08:58;8.20;99.90
5136;DHT22;2586;48.710;9.202;2023-04-16T10:11:24;8.30;99.90
5136;DHT22;2586;48.710;9.202;2023-04-16T10:13:50;8.40;99.90
5136;DHT22;2586;48.710;9.202;2023-04-16T10:16:16;8.30;99.90
5136;DHT22;2586;48.710;9.202;2023-04-16T10:18:43;8.10;98.90
5136;DHT22;2586;48.710;9.202;2023-04-16T10:21:09;8.10;99.90
5136;DHT22;2586;48.710;9.202;2023-04-16T10:23:40;8.10;99.90
5136;DHT22;2586;48.710;9.202;2023-04-16T10:26:06;8.00;99.90
5136;DHT22;2586;48.710;9.202;2023-04-16T10:28:32;8.00;99.90
5136;DHT22;2586;48.710;9.202;2023-04-16T10:31:01;8.00;99.90
5136;DHT22;2586;48.710;9.202;2023-04-16T10:33:29;8.00;99.90
5136;DHT22;2586;48.710;9.202;2023-04-16T10:36:22;8.00;99.90
5136;DHT22;2586;48.710;9.202;2023-04-16T10:38:51;8.10;99.90
5136;DHT22;2586;48.710;9.202;2023-04-16T10:41:19;8.10;99.90
5136;DHT22;2586;48.710;9.202;2023-04-16T10:43:46;8.20;99.90
5136;DHT22;2586;48.710;9.202;2023-04-16T10:46:36;8.30;99.90
5136;DHT22;2586;48.710;9.202;2023-04-16T10:49:23;8.30;99.90
5136;DHT22;2586;48.710;9.202;2023-04-16T10:51:58;8.30;99.90
5136;DHT22;2586;48.710;9.202;2023-04-16T10:54:30;8.30;99.90
5136;DHT22;2586;48.710;9.202;2023-04-16T10:57:03;8.40;99.90
5136;DHT22;2586;48.710;9.202;2023-04-16T10:59:31;8.50;99.90
5136;DHT22;2586;48.710;9.202;2023-04-16T11:02:00;8.60;99.90
5136;DHT22;2586;48.710;9.202;2023-04-16T11:04:28;8.60;99.90
5136;DHT22;2586;48.710;9.202;2023-04-16T11:09:56;8.40;99.90
5136;DHT22;2586;48.710;9.202;2023-04-16T11:12:41;8.50;99.90
5136;DHT22;2586;48.710;9.202;2023-04-16T11:15:13;8.50;89.40
5136;DHT22;2586;48.710;9.202;2023-04-16T11:17:43;8.40;99.90
5136;DHT22;2586;48.710;9.202;2023-04-16T11:20:23;8.30;99.90
5136;DHT22;2586;48.710;9.202;2023-04-16T11:22:50;8.30;99.90
5136;DHT22;2586;48.710;9.202;2023-04-16T11:25:20;8.30;62.40
5136;DHT22;2586;48.710;9.202;2023-04-16T11:27:46;8.50;99.90
5136;DHT22;2586;48.710;9.202;2023-04-16T11:30:12;8.50;99.90
5136;DHT22;2586;48.710;9.202;2023-04-16T11:32:38;8.50;98.00
5136;DHT22;2586;48.710;9.202;2023-04-16T11:35:12;8.50;71.20
5136;DHT22;2586;48.710;9.202;2023-04-16T11:37:38;8.50;99.90
5136;DHT22;2586;48.710;9.202;2023-04-16T11:40:05;8.60;99.90
5136;DHT22;2586;48.710;9.202;2023-04-16T11:42:32;8.50;99.90
5136;DHT22;2586;48.710;9.202;2023-04-16T11:44:58;8.50;99.90
5136;DHT22;2586;48.710;9.202;2023-04-16T11:47:29;8.40;99.90
5136;DHT22;2586;48.710;9.202;2023-04-16T11:49:55;8.50;99.90
5136;DHT22;2586;48.710;9.202;2023-04-16T11:52:28;8.60;99.90
5136;DHT22;2586;48.710;9.202;2023-04-16T11:54:54;8.50;99.90
5136;DHT22;2586;48.710;9.202;2023-04-16T11:57:27;8.60;99.90
5136;DHT22;2586;48.710;9.202;2023-04-16T11:59:53;8.50;99.90
5136;DHT22;2586;48.710;9.202;2023-04-16T12:02:37;8.60;99.90
5136;DHT22;2586;48.710;9.202;2023-04-16T12:05:05;8.70;99.90
5136;DHT22;2586;48.710;9.202;2023-04-16T12:07:33;8.70;99.90
5136;DHT22;2586;48.710;9.202;2023-04-16T12:10:07;8.80;99.90
5136;DHT22;2586;48.710;9.202;2023-04-16T12:12:33;8.80;99.90
5136;DHT22;2586;48.710;9.202;2023-04-16T12:15:01;8.80;99.90
5136;DHT22;2586;48.710;9.202;2023-04-16T12:17:33;9.00;99.90
5136;DHT22;2586;48.710;9.202;2023-04-16T12:20:01;9.00;99.90
5136;DHT22;2586;48.710;9.202;2023-04-16T12:22:31;8.90;84.00
5136;DHT22;2586;48.710;9.202;2023-04-16T12:25:20;9.00;99.90
5136;DHT22;2586;48.710;9.202;2023-04-16T12:27:46;8.80;48.60
5136;DHT22;2586;48.710;9.202;2023-04-16T12:30:14;8.80;98.00
5136;DHT22;2586;48.710;9.202;2023-04-16T12:32:41;8.70;99.90
5136;DHT22;2586;48.710;9.202;2023-04-16T12:35:07;8.70;99.90
5136;DHT22;2586;48.710;9.202;2023-04-16T12:37:34;8.70;99.90
5136;DHT22;2586;48.710;9.202;2023-04-16T12:40:00;8.70;99.90
5136;DHT22;2586;48.710;9.202;2023-04-16T12:42:26;8.70;99.90
5136;DHT22;2586;48.710;9.202;2023-04-16T12:44:52;8.70;99.90
5136;DHT22;2586;48.710;9.202;2023-04-16T12:47:17;8.80;99.90
5136;DHT22;2586;48.710;9.202;2023-04-16T12:49:43;8.80;99.90
5136;DHT22;2586;48.710;9.202;2023-04-16T12:52:09;8.70;94.80
5136;DHT22;2586;48.710;9.202;2023-04-16T12:54:35;8.70;99.90
5136;DHT22;2586;48.710;9.202;2023-04-16T12:57:00;8.60;99.90
5136;DHT22;2586;48.710;9.202;2023-04-16T12:59:26;8.60;99.90
5136;DHT22;2586;48.710;9.202;2023-04-16T13:01:51;8.70;99.90
5136;DHT22;2586;48.710;9.202;2023-04-16T13:04:17;8.60;83.60
5136;DHT22;2586;48.710;9.202;2023-04-16T13:06:45;8.70;99.90
5136;DHT22;2586;48.710;9.202;2023-04-16T13:09:11;8.70;99.90
5136;DHT22;2586;48.710;9.202;2023-04-16T13:11:37;8.80;99.90
5136;DHT22;2586;48.710;9.202;2023-04-16T13:14:02;8.80;99.90
5136;DHT22;2586;48.710;9.202;2023-04-16T13:16:28;8.60;99.90
5136;DHT22;2586;48.710;9.202;2023-04-16T13:18:53;8.80;99.90
5136;DHT22;2586;48.710;9.202;2023-04-16T13:21:19;8.80;99.90
5136;DHT22;2586;48.710;9.202;2023-04-16T13:23:44;8.90;99.90
5136;DHT22;2586;48.710;9.202;2023-04-16T13:26:10;8.80;99.90
5136;DHT22;2586;48.710;9.202;2023-04-16T13:28:37;8.80;99.90
5136;DHT22;2586;48.710;9.202;2023-04-16T13:31:03;8.70;99.90
5136;DHT22;2586;48.710;9.202;2023-04-16T13:33:28;8.70;99.90
5136;DHT22;2586;48.710;9.202;2023-04-16T13:35:54;8.70;99.90
5136;DHT22;2586;48.710;9.202;2023-04-16T13:38:20;8.70;99.90
5136;DHT22;2586;48.710;9.202;2023-04-16T13:40:45;8.60;99.90
5136;DHT22;2586;48.710;9.202;2023-04-16T13:43:11;8.70;99.90
5136;DHT22;2586;48.710;9.202;2023-04-16T13:45:38;8.70;99.90
5136;DHT22;2586;48.710;9.202;2023-04-16T13:48:04;8.80;99.90
5136;DHT22;2586;48.710;9.202;2023-04-16T13:50:29;8.70;99.90
5136;DHT22;2586;48.710;9.202;2023-04-16T13:52:55;8.60;99.90
5136;DHT22;2586;48.710;9.202;2023-04-16T13:55:21;8.60;99.90
5136;DHT22;2586;48.710;9.202;2023-04-16T13:57:47;8.50;99.90
5136;DHT22;2586;48.710;9.202;2023-04-16T14:00:13;8.60;99.90
5136;DHT22;2586;48.710;9.202;2023-04-16T14:02:40;8.50;99.90
5136;DHT22;2586;48.710;9.202;2023-04-16T14:05:09;8.50;99.90
5136;DHT22;2586;48.710;9.202;2023-04-16T14:07:39;8.40;99.90
5136;DHT22;2586;48.710;9.202;2023-04-16T14:10:06;8.50;99.90
5136;DHT22;2586;48.710;9.202;2023-04-16T14:12:32;8.50;99.90
5136;DHT22;2586;48.710;9.202;2023-04-16T14:14:57;8.40;99.90
5136;DHT22;2586;48.710;9.202;2023-04-16T14:17:23;8.40;99.90
5136;DHT22;2586;48.710;9.202;2023-04-16T14:19:48;8.50;99.90
5136;DHT22;2586;48.710;9.202;2023-04-16T14:22:14;8.40;99.90
5136;DHT22;2586;48.710;9.202;2023-04-16T14:24:42;8.40;99.90
5136;DHT22;2586;48.710;9.202;2023-04-16T14:27:08;8.40;99.90
5136;DHT22;2586;48.710;9.202;2023-04-16T14:29:34;8.40;99.90
5136;DHT22;2586;48.710;9.202;2023-04-16T14:32:01;8.40;99.90
5136;DHT22;2586;48.710;9.202;2023-04-16T14:34:26;8.40;99.90
5136;DHT22;2586;48.710;9.202;2023-04-16T14:36:52;8.50;99.90
5136;DHT22;2586;48.710;9.202;2023-04-16T14:39:18;8.50;99.90
5136;DHT22;2586;48.710;9.202;2023-04-16T14:41:43;8.40;99.90
5136;DHT22;2586;48.710;9.202;2023-04-16T14:44:09;8.40;99.90
5136;DHT22;2586;48.710;9.202;2023-04-16T14:46:34;8.40;99.90
5136;DHT22;2586;48.710;9.202;2023-04-16T14:49:00;8.40;99.90
5136;DHT22;2586;48.710;9.202;2023-04-16T14:51:26;8.30;99.90
5136;DHT22;2586;48.710;9.202;2023-04-16T14:53:51;8.20;99.90
5136;DHT22;2586;48.710;9.202;2023-04-16T14:56:17;8.20;99.90
5136;DHT22;2586;48.710;9.202;2023-04-16T14:58:43;8.30;99.90
5136;DHT22;2586;48.710;9.202;2023-04-16T15:01:08;8.20;99.90
5136;DHT22;2586;48.710;9.202;2023-04-16T15:03:34;8.20;99.90
5136;DHT22;2586;48.710;9.202;2023-04-16T15:06:00;8.20;99.90
5136;DHT22;2586;48.710;9.202;2023-04-16T15:08:26;8.20;99.90
5136;DHT22;2586;48.710;9.202;2023-04-16T15:10:51;8.20;99.90
5136;DHT22;2586;48.710;9.202;2023-04-16T15:13:17;8.20;99.90
5136;DHT22;2586;48.710;9.202;2023-04-16T15:15:43;8.10;99.90
5136;DHT22;2586;48.710;9.202;2023-04-16T15:18:09;8.20;99.90
5136;DHT22;2586;48.710;9.202;2023-04-16T15:20:35;8.10;99.90
5136;DHT22;2586;48.710;9.202;2023-04-16T15:23:01;8.10;99.90
5136;DHT22;2586;48.710;9.202;2023-04-16T15:25:26;8.10;99.90
5136;DHT22;2586;48.710;9.202;2023-04-16T15:27:52;8.10;99.90
5136;DHT22;2586;48.710;9.202;2023-04-16T15:30:18;8.20;99.90
5136;DHT22;2586;48.710;9.202;2023-04-16T15:32:43;8.20;99.90
5136;DHT22;2586;48.710;9.202;2023-04-16T15:35:09;8.20;99.90
5136;DHT22;2586;48.710;9.202;2023-04-16T15:37:35;8.20;99.90
5136;DHT22;2586;48.710;9.202;2023-04-16T15:40:01;8.30;99.90
5136;DHT22;2586;48.710;9.202;2023-04-16T15:42:26;8.20;99.90
5136;DHT22;2586;48.710;9.202;2023-04-16T15:44:52;8.20;99.90
5136;DHT22;2586;48.710;9.202;2023-04-16T15:47:17;8.30;99.90
5136;DHT22;2586;48.710;9.202;2023-04-16T15:49:43;8.20;99.90
5136;DHT22;2586;48.710;9.202;2023-04-16T15:52:10;8.20;99.90
5136;DHT22;2586;48.710;9.202;2023-04-16T15:54:36;8.20;99.90
5136;DHT22;2586;48.710;9.202;2023-04-16T15:57:01;8.20;99.90
5136;DHT22;2586;48.710;9.202;2023-04-16T15:59:27;8.20;99.90
5136;DHT22;2586;48.710;9.202;2023-04-16T16:01:54;8.20;99.90
5136;DHT22;2586;48.710;9.202;2023-04-16T16:04:20;8.20;99.90
5136;DHT22;2586;48.710;9.202;2023-04-16T16:06:51;8.20;99.90
5136;DHT22;2586;48.710;9.202;2023-04-16T16:09:16;8.20;99.90
5136;DHT22;2586;48.710;9.202;2023-04-16T16:11:42;8.20;99.90
5136;DHT22;2586;48.710;9.202;2023-04-16T16:14:08;8.20;99.90
5136;DHT22;2586;48.710;9.202;2023-04-16T16:16:34;8.20;99.90